sensor_id;sensor_type;location;lat;lon;timestamp;P1;durP1;ratioP1;P2;durP2;ratioP2
18659;SDS011;9459;50.254;19.014;2023-09-07T00:02:19;17.50;;;11.70;;
18659;SDS011;9459;50.254;19.014;2023-09-07T00:05:06;23.08;;;12.40;;
18659;SDS011;9459;50.254;19.014;2023-09-07T00:07:36;19.85;;;11.60;;
18659;SDS011;9459;50.254;19.014;2023-09-07T00:10:05;17.33;;;10.50;;
18659;SDS011;9459;50.254;19.014;2023-09-07T00:12:34;17.33;;;10.40;;
18659;SDS011;9459;50.254;19.014;2023-09-07T00:15:06;20.05;;;11.32;;
18659;SDS011;9459;50.254;19.014;2023-09-07T00:17:37;16.10;;;10.85;;
18659;SDS011;9459;50.254;19.014;2023-09-07T00:20:07;16.73;;;10.77;;
18659;SDS011;9459;50.254;19.014;2023-09-07T00:22:41;19.10;;;10.52;;
18659;SDS011;9459;50.254;19.014;2023-09-07T00:25:09;17.52;;;9.73;;
18659;SDS011;9459;50.254;19.014;2023-09-07T00:27:38;17.40;;;9.70;;
18659;SDS011;9459;50.254;19.014;2023-09-07T00:30:07;15.32;;;8.85;;
18659;SDS011;9459;50.254;19.014;2023-09-07T00:32:37;17.40;;;9.45;;
18659;SDS011;9459;50.254;19.014;2023-09-07T00:35:08;16.02;;;10.23;;
18659;SDS011;9459;50.254;19.014;2023-09-07T00:37:36;16.05;;;9.65;;
18659;SDS011;9459;50.254;19.014;2023-09-07T00:40:06;14.27;;;8.93;;
18659;SDS011;9459;50.254;19.014;2023-09-07T00:42:36;15.70;;;8.85;;
18659;SDS011;9459;50.254;19.014;2023-09-07T00:45:06;14.15;;;9.13;;
18659;SDS011;9459;50.254;19.014;2023-09-07T00:47:35;13.65;;;9.20;;
18659;SDS011;9459;50.254;19.014;2023-09-07T00:50:04;16.58;;;9.02;;
18659;SDS011;9459;50.254;19.014;2023-09-07T00:52:35;13.63;;;9.15;;
18659;SDS011;9459;50.254;19.014;2023-09-07T00:55:07;12.90;;;8.50;;
18659;SDS011;9459;50.254;19.014;2023-09-07T00:57:36;13.77;;;8.55;;
18659;SDS011;9459;50.254;19.014;2023-09-07T01:00:07;14.07;;;8.75;;
18659;SDS011;9459;50.254;19.014;2023-09-07T01:02:35;12.25;;;8.98;;
18659;SDS011;9459;50.254;19.014;2023-09-07T01:05:05;15.55;;;9.43;;
18659;SDS011;9459;50.254;19.014;2023-09-07T01:07:37;16.08;;;9.00;;
18659;SDS011;9459;50.254;19.014;2023-09-07T01:10:08;13.80;;;9.18;;
18659;SDS011;9459;50.254;19.014;2023-09-07T01:12:37;15.93;;;9.15;;
18659;SDS011;9459;50.254;19.014;2023-09-07T01:15:06;14.77;;;9.02;;
18659;SDS011;9459;50.254;19.014;2023-09-07T01:17:35;14.38;;;9.32;;
18659;SDS011;9459;50.254;19.014;2023-09-07T01:20:05;15.15;;;9.43;;
18659;SDS011;9459;50.254;19.014;2023-09-07T01:22:38;13.95;;;8.85;;
18659;SDS011;9459;50.254;19.014;2023-09-07T01:25:07;16.52;;;9.30;;
18659;SDS011;9459;50.254;19.014;2023-09-07T01:27:36;19.20;;;10.02;;
18659;SDS011;9459;50.254;19.014;2023-09-07T01:30:05;14.07;;;8.90;;
18659;SDS011;9459;50.254;19.014;2023-09-07T01:32:35;14.80;;;9.30;;
18659;SDS011;9459;50.254;19.014;2023-09-07T01:35:04;18.40;;;9.85;;
18659;SDS011;9459;50.254;19.014;2023-09-07T01:37:33;16.45;;;8.95;;
18659;SDS011;9459;50.254;19.014;2023-09-07T01:40:04;14.95;;;9.63;;
18659;SDS011;9459;50.254;19.014;2023-09-07T01:45:02;14.77;;;8.90;;
18659;SDS011;9459;50.254;19.014;2023-09-07T01:47:31;16.40;;;10.20;;
18659;SDS011;9459;50.254;19.014;2023-09-07T01:49:59;15.98;;;8.98;;
18659;SDS011;9459;50.254;19.014;2023-09-07T01:52:28;17.42;;;9.52;;
18659;SDS011;9459;50.254;19.014;2023-09-07T01:54:58;13.48;;;9.55;;
18659;SDS011;9459;50.254;19.014;2023-09-07T01:57:28;13.38;;;10.07;;
18659;SDS011;9459;50.254;19.014;2023-09-07T01:59:57;15.20;;;9.48;;
18659;SDS011;9459;50.254;19.014;2023-09-07T02:02:26;16.17;;;10.30;;
18659;SDS011;9459;50.254;19.014;2023-09-07T02:04:54;14.43;;;9.85;;
18659;SDS011;9459;50.254;19.014;2023-09-07T02:07:23;16.42;;;9.70;;
18659;SDS011;9459;50.254;19.014;2023-09-07T02:09:51;14.18;;;9.40;;
18659;SDS011;9459;50.254;19.014;2023-09-07T02:12:19;16.83;;;10.00;;
18659;SDS011;9459;50.254;19.014;2023-09-07T02:14:49;18.33;;;10.50;;
18659;SDS011;9459;50.254;19.014;2023-09-07T02:17:18;14.13;;;10.45;;
18659;SDS011;9459;50.254;19.014;2023-09-07T02:19:48;16.58;;;10.20;;
18659;SDS011;9459;50.254;19.014;2023-09-07T02:22:17;20.48;;;10.43;;
18659;SDS011;9459;50.254;19.014;2023-09-07T02:24:45;16.48;;;10.80;;
18659;SDS011;9459;50.254;19.014;2023-09-07T02:27:14;18.33;;;11.48;;
18659;SDS011;9459;50.254;19.014;2023-09-07T02:29:42;15.93;;;11.55;;
18659;SDS011;9459;50.254;19.014;2023-09-07T02:32:12;22.00;;;11.73;;
18659;SDS011;9459;50.254;19.014;2023-09-07T02:34:41;19.50;;;11.32;;
18659;SDS011;9459;50.254;19.014;2023-09-07T02:37:09;19.02;;;11.80;;
18659;SDS011;9459;50.254;19.014;2023-09-07T02:39:38;18.08;;;10.93;;
18659;SDS011;9459;50.254;19.014;2023-09-07T02:42:07;17.90;;;11.00;;
18659;SDS011;9459;50.254;19.014;2023-09-07T02:44:35;18.50;;;11.43;;
18659;SDS011;9459;50.254;19.014;2023-09-07T02:47:04;18.05;;;11.00;;
18659;SDS011;9459;50.254;19.014;2023-09-07T02:49:36;17.40;;;10.65;;
18659;SDS011;9459;50.254;19.014;2023-09-07T02:52:05;16.90;;;10.68;;
18659;SDS011;9459;50.254;19.014;2023-09-07T02:54:34;20.55;;;11.90;;
18659;SDS011;9459;50.254;19.014;2023-09-07T02:57:03;18.73;;;10.57;;
18659;SDS011;9459;50.254;19.014;2023-09-07T02:59:31;16.30;;;11.15;;
18659;SDS011;9459;50.254;19.014;2023-09-07T03:02:00;16.02;;;10.85;;
18659;SDS011;9459;50.254;19.014;2023-09-07T03:04:29;17.38;;;11.38;;
18659;SDS011;9459;50.254;19.014;2023-09-07T03:07:00;18.20;;;10.25;;
18659;SDS011;9459;50.254;19.014;2023-09-07T03:11:57;17.30;;;10.07;;
18659;SDS011;9459;50.254;19.014;2023-09-07T03:14:25;17.05;;;10.60;;
18659;SDS011;9459;50.254;19.014;2023-09-07T03:16:54;20.50;;;11.57;;
18659;SDS011;9459;50.254;19.014;2023-09-07T03:19:23;21.85;;;12.52;;
18659;SDS011;9459;50.254;19.014;2023-09-07T03:21:52;18.80;;;11.45;;
18659;SDS011;9459;50.254;19.014;2023-09-07T03:24:22;17.60;;;11.77;;
18659;SDS011;9459;50.254;19.014;2023-09-07T03:26:50;18.08;;;11.57;;
18659;SDS011;9459;50.254;19.014;2023-09-07T03:29:19;18.55;;;11.30;;
18659;SDS011;9459;50.254;19.014;2023-09-07T03:31:47;18.02;;;11.32;;
18659;SDS011;9459;50.254;19.014;2023-09-07T03:34:16;18.95;;;11.40;;
18659;SDS011;9459;50.254;19.014;2023-09-07T03:36:46;18.33;;;10.45;;
18659;SDS011;9459;50.254;19.014;2023-09-07T03:39:15;18.10;;;11.00;;
18659;SDS011;9459;50.254;19.014;2023-09-07T03:41:46;18.58;;;10.55;;
18659;SDS011;9459;50.254;19.014;2023-09-07T03:44:15;17.08;;;9.95;;
18659;SDS011;9459;50.254;19.014;2023-09-07T03:46:43;18.75;;;11.50;;
18659;SDS011;9459;50.254;19.014;2023-09-07T03:49:12;17.80;;;10.40;;
18659;SDS011;9459;50.254;19.014;2023-09-07T03:51:41;19.50;;;11.63;;
18659;SDS011;9459;50.254;19.014;2023-09-07T03:54:09;16.08;;;10.00;;
18659;SDS011;9459;50.254;19.014;2023-09-07T03:56:38;14.70;;;9.65;;
18659;SDS011;9459;50.254;19.014;2023-09-07T03:59:08;19.30;;;10.80;;
18659;SDS011;9459;50.254;19.014;2023-09-07T04:01:37;19.45;;;10.80;;
18659;SDS011;9459;50.254;19.014;2023-09-07T04:04:06;18.67;;;11.18;;
18659;SDS011;9459;50.254;19.014;2023-09-07T04:06:34;18.40;;;11.60;;
18659;SDS011;9459;50.254;19.014;2023-09-07T04:09:03;18.20;;;11.23;;
18659;SDS011;9459;50.254;19.014;2023-09-07T04:11:31;22.30;;;11.65;;
18659;SDS011;9459;50.254;19.014;2023-09-07T04:14:00;18.75;;;11.18;;
18659;SDS011;9459;50.254;19.014;2023-09-07T04:16:30;22.05;;;11.52;;
18659;SDS011;9459;50.254;19.014;2023-09-07T04:18:59;17.58;;;10.98;;
18659;SDS011;9459;50.254;19.014;2023-09-07T04:21:28;17.10;;;10.50;;
18659;SDS011;9459;50.254;19.014;2023-09-07T04:23:57;18.25;;;10.48;;
18659;SDS011;9459;50.254;19.014;2023-09-07T04:26:25;22.10;;;11.52;;
18659;SDS011;9459;50.254;19.014;2023-09-07T04:28:54;12.95;;;9.80;;
18659;SDS011;9459;50.254;19.014;2023-09-07T04:31:22;17.63;;;10.90;;
18659;SDS011;9459;50.254;19.014;2023-09-07T04:33:55;19.55;;;11.40;;
18659;SDS011;9459;50.254;19.014;2023-09-07T04:36:24;19.65;;;11.52;;
18659;SDS011;9459;50.254;19.014;2023-09-07T04:38:52;16.33;;;10.25;;
18659;SDS011;9459;50.254;19.014;2023-09-07T04:41:21;15.57;;;9.57;;
18659;SDS011;9459;50.254;19.014;2023-09-07T04:43:49;18.50;;;10.20;;
18659;SDS011;9459;50.254;19.014;2023-09-07T04:46:20;18.60;;;10.02;;
18659;SDS011;9459;50.254;19.014;2023-09-07T04:48:50;15.60;;;10.40;;
18659;SDS011;9459;50.254;19.014;2023-09-07T04:51:19;15.77;;;10.20;;
18659;SDS011;9459;50.254;19.014;2023-09-07T04:53:49;16.42;;;9.98;;
18659;SDS011;9459;50.254;19.014;2023-09-07T04:56:20;16.05;;;10.07;;
18659;SDS011;9459;50.254;19.014;2023-09-07T04:58:49;19.48;;;10.23;;
18659;SDS011;9459;50.254;19.014;2023-09-07T05:01:17;16.73;;;9.57;;
18659;SDS011;9459;50.254;19.014;2023-09-07T05:03:47;15.18;;;9.73;;
18659;SDS011;9459;50.254;19.014;2023-09-07T05:06:17;16.35;;;9.40;;
18659;SDS011;9459;50.254;19.014;2023-09-07T05:08:47;16.02;;;9.38;;
18659;SDS011;9459;50.254;19.014;2023-09-07T05:11:15;15.85;;;8.70;;
18659;SDS011;9459;50.254;19.014;2023-09-07T05:13:44;18.98;;;10.18;;
18659;SDS011;9459;50.254;19.014;2023-09-07T05:16:12;16.92;;;9.18;;
18659;SDS011;9459;50.254;19.014;2023-09-07T05:18:41;16.48;;;9.10;;
18659;SDS011;9459;50.254;19.014;2023-09-07T05:21:13;18.15;;;9.45;;
18659;SDS011;9459;50.254;19.014;2023-09-07T05:23:42;14.07;;;8.68;;
18659;SDS011;9459;50.254;19.014;2023-09-07T05:26:12;17.67;;;9.65;;
18659;SDS011;9459;50.254;19.014;2023-09-07T05:28:40;14.90;;;9.85;;
18659;SDS011;9459;50.254;19.014;2023-09-07T05:31:09;15.80;;;9.25;;
18659;SDS011;9459;50.254;19.014;2023-09-07T05:33:38;18.50;;;10.70;;
18659;SDS011;9459;50.254;19.014;2023-09-07T05:36:06;15.82;;;10.13;;
18659;SDS011;9459;50.254;19.014;2023-09-07T05:38:35;22.50;;;10.93;;
18659;SDS011;9459;50.254;19.014;2023-09-07T05:41:04;17.42;;;10.05;;
18659;SDS011;9459;50.254;19.014;2023-09-07T05:43:34;16.02;;;9.95;;
18659;SDS011;9459;50.254;19.014;2023-09-07T05:46:03;16.17;;;10.07;;
18659;SDS011;9459;50.254;19.014;2023-09-07T05:48:31;20.15;;;10.13;;
18659;SDS011;9459;50.254;19.014;2023-09-07T05:51:00;21.48;;;10.20;;
18659;SDS011;9459;50.254;19.014;2023-09-07T05:53:29;17.90;;;10.35;;
18659;SDS011;9459;50.254;19.014;2023-09-07T05:55:57;16.85;;;9.65;;
18659;SDS011;9459;50.254;19.014;2023-09-07T05:58:26;17.05;;;8.77;;
18659;SDS011;9459;50.254;19.014;2023-09-07T06:00:56;16.23;;;9.60;;
18659;SDS011;9459;50.254;19.014;2023-09-07T06:03:24;21.55;;;9.45;;
18659;SDS011;9459;50.254;19.014;2023-09-07T06:05:53;16.25;;;8.93;;
18659;SDS011;9459;50.254;19.014;2023-09-07T06:08:23;16.52;;;9.13;;
18659;SDS011;9459;50.254;19.014;2023-09-07T06:10:53;15.80;;;8.65;;
18659;SDS011;9459;50.254;19.014;2023-09-07T06:13:22;16.52;;;8.75;;
18659;SDS011;9459;50.254;19.014;2023-09-07T06:15:50;12.45;;;8.00;;
18659;SDS011;9459;50.254;19.014;2023-09-07T06:18:20;15.07;;;8.60;;
18659;SDS011;9459;50.254;19.014;2023-09-07T06:20:48;16.52;;;8.27;;
18659;SDS011;9459;50.254;19.014;2023-09-07T06:23:17;11.32;;;7.30;;
18659;SDS011;9459;50.254;19.014;2023-09-07T06:25:46;10.98;;;8.50;;
18659;SDS011;9459;50.254;19.014;2023-09-07T06:28:14;14.05;;;8.32;;
18659;SDS011;9459;50.254;19.014;2023-09-07T06:30:43;14.20;;;7.05;;
18659;SDS011;9459;50.254;19.014;2023-09-07T06:33:11;13.57;;;8.02;;
18659;SDS011;9459;50.254;19.014;2023-09-07T06:35:41;13.48;;;8.00;;
18659;SDS011;9459;50.254;19.014;2023-09-07T06:38:10;12.50;;;7.57;;
18659;SDS011;9459;50.254;19.014;2023-09-07T06:40:41;14.35;;;8.38;;
18659;SDS011;9459;50.254;19.014;2023-09-07T06:43:09;10.48;;;6.90;;
18659;SDS011;9459;50.254;19.014;2023-09-07T06:45:38;10.25;;;7.78;;
18659;SDS011;9459;50.254;19.014;2023-09-07T06:48:06;10.50;;;7.43;;
18659;SDS011;9459;50.254;19.014;2023-09-07T06:50:34;13.20;;;7.43;;
18659;SDS011;9459;50.254;19.014;2023-09-07T06:53:05;15.40;;;7.68;;
18659;SDS011;9459;50.254;19.014;2023-09-07T06:55:33;12.77;;;8.20;;
18659;SDS011;9459;50.254;19.014;2023-09-07T06:58:02;11.48;;;7.20;;
18659;SDS011;9459;50.254;19.014;2023-09-07T07:00:31;12.30;;;7.25;;
18659;SDS011;9459;50.254;19.014;2023-09-07T07:02:59;10.85;;;7.68;;
18659;SDS011;9459;50.254;19.014;2023-09-07T07:05:28;11.45;;;7.78;;
18659;SDS011;9459;50.254;19.014;2023-09-07T07:07:57;14.70;;;7.05;;
18659;SDS011;9459;50.254;19.014;2023-09-07T07:10:27;10.70;;;7.72;;
18659;SDS011;9459;50.254;19.014;2023-09-07T07:12:56;13.18;;;7.07;;
18659;SDS011;9459;50.254;19.014;2023-09-07T07:15:24;15.07;;;7.10;;
18659;SDS011;9459;50.254;19.014;2023-09-07T07:17:53;14.07;;;7.45;;
18659;SDS011;9459;50.254;19.014;2023-09-07T07:20:21;9.93;;;6.72;;
18659;SDS011;9459;50.254;19.014;2023-09-07T07:22:50;10.45;;;6.45;;
18659;SDS011;9459;50.254;19.014;2023-09-07T07:25:18;11.38;;;6.65;;
18659;SDS011;9459;50.254;19.014;2023-09-07T07:27:48;10.88;;;6.93;;
18659;SDS011;9459;50.254;19.014;2023-09-07T07:30:17;12.20;;;6.50;;
18659;SDS011;9459;50.254;19.014;2023-09-07T07:32:46;10.65;;;6.13;;
18659;SDS011;9459;50.254;19.014;2023-09-07T07:35:14;12.68;;;6.13;;
18659;SDS011;9459;50.254;19.014;2023-09-07T07:37:43;12.35;;;6.50;;
18659;SDS011;9459;50.254;19.014;2023-09-07T07:40:12;11.15;;;6.75;;
18659;SDS011;9459;50.254;19.014;2023-09-07T07:42:40;9.93;;;6.85;;
18659;SDS011;9459;50.254;19.014;2023-09-07T07:45:10;11.85;;;6.13;;
18659;SDS011;9459;50.254;19.014;2023-09-07T07:47:39;8.45;;;6.25;;
18659;SDS011;9459;50.254;19.014;2023-09-07T07:50:08;11.52;;;6.22;;
18659;SDS011;9459;50.254;19.014;2023-09-07T07:52:38;10.23;;;6.18;;
18659;SDS011;9459;50.254;19.014;2023-09-07T07:55:07;12.40;;;6.05;;
18659;SDS011;9459;50.254;19.014;2023-09-07T07:57:36;10.98;;;6.03;;
18659;SDS011;9459;50.254;19.014;2023-09-07T08:00:05;9.13;;;5.57;;
18659;SDS011;9459;50.254;19.014;2023-09-07T08:02:36;8.00;;;5.72;;
18659;SDS011;9459;50.254;19.014;2023-09-07T08:05:06;9.38;;;5.97;;
18659;SDS011;9459;50.254;19.014;2023-09-07T08:07:35;7.93;;;6.07;;
18659;SDS011;9459;50.254;19.014;2023-09-07T08:10:04;9.18;;;5.53;;
18659;SDS011;9459;50.254;19.014;2023-09-07T08:12:33;9.63;;;5.55;;
18659;SDS011;9459;50.254;19.014;2023-09-07T08:15:01;10.07;;;5.57;;
18659;SDS011;9459;50.254;19.014;2023-09-07T08:17:30;9.27;;;5.88;;
18659;SDS011;9459;50.254;19.014;2023-09-07T08:20:00;9.57;;;5.80;;
18659;SDS011;9459;50.254;19.014;2023-09-07T08:22:30;9.23;;;5.25;;
18659;SDS011;9459;50.254;19.014;2023-09-07T08:25:01;6.93;;;5.30;;
18659;SDS011;9459;50.254;19.014;2023-09-07T08:27:29;9.57;;;5.80;;
18659;SDS011;9459;50.254;19.014;2023-09-07T08:29:57;7.90;;;5.47;;
18659;SDS011;9459;50.254;19.014;2023-09-07T08:32:26;9.40;;;5.57;;
18659;SDS011;9459;50.254;19.014;2023-09-07T08:34:55;8.50;;;5.55;;
18659;SDS011;9459;50.254;19.014;2023-09-07T08:37:29;8.23;;;5.45;;
18659;SDS011;9459;50.254;19.014;2023-09-07T08:39:58;7.05;;;5.53;;
18659;SDS011;9459;50.254;19.014;2023-09-07T08:42:27;8.90;;;5.85;;
18659;SDS011;9459;50.254;19.014;2023-09-07T08:44:55;7.88;;;5.13;;
18659;SDS011;9459;50.254;19.014;2023-09-07T08:47:25;7.20;;;4.75;;
18659;SDS011;9459;50.254;19.014;2023-09-07T08:49:56;6.03;;;4.82;;
18659;SDS011;9459;50.254;19.014;2023-09-07T08:52:25;9.52;;;5.25;;
18659;SDS011;9459;50.254;19.014;2023-09-07T08:54:56;7.38;;;5.68;;
18659;SDS011;9459;50.254;19.014;2023-09-07T08:57:28;6.38;;;4.68;;
18659;SDS011;9459;50.254;19.014;2023-09-07T08:59:58;7.68;;;4.22;;
18659;SDS011;9459;50.254;19.014;2023-09-07T09:02:28;6.60;;;4.05;;
18659;SDS011;9459;50.254;19.014;2023-09-07T09:04:57;5.90;;;4.45;;
18659;SDS011;9459;50.254;19.014;2023-09-07T09:07:26;6.18;;;4.55;;
18659;SDS011;9459;50.254;19.014;2023-09-07T09:10:03;6.22;;;4.30;;
18659;SDS011;9459;50.254;19.014;2023-09-07T09:12:32;5.30;;;4.32;;
18659;SDS011;9459;50.254;19.014;2023-09-07T09:15:01;7.70;;;4.38;;
18659;SDS011;9459;50.254;19.014;2023-09-07T09:17:30;5.93;;;4.18;;
18659;SDS011;9459;50.254;19.014;2023-09-07T09:19:59;6.18;;;4.15;;
18659;SDS011;9459;50.254;19.014;2023-09-07T09:22:28;7.05;;;4.13;;
18659;SDS011;9459;50.254;19.014;2023-09-07T09:24:56;4.78;;;4.15;;
18659;SDS011;9459;50.254;19.014;2023-09-07T09:27:26;6.35;;;4.00;;
18659;SDS011;9459;50.254;19.014;2023-09-07T09:29:55;5.22;;;4.38;;
18659;SDS011;9459;50.254;19.014;2023-09-07T09:34:53;7.28;;;4.22;;
18659;SDS011;9459;50.254;19.014;2023-09-07T09:37:22;5.90;;;3.65;;
18659;SDS011;9459;50.254;19.014;2023-09-07T09:39:51;5.57;;;3.90;;
18659;SDS011;9459;50.254;19.014;2023-09-07T09:42:21;5.65;;;4.18;;
18659;SDS011;9459;50.254;19.014;2023-09-07T09:44:52;7.37;;;3.97;;
18659;SDS011;9459;50.254;19.014;2023-09-07T09:47:21;5.15;;;3.80;;
18659;SDS011;9459;50.254;19.014;2023-09-07T09:49:49;9.65;;;4.50;;
18659;SDS011;9459;50.254;19.014;2023-09-07T09:52:19;5.97;;;4.10;;
18659;SDS011;9459;50.254;19.014;2023-09-07T09:54:48;4.20;;;3.80;;
18659;SDS011;9459;50.254;19.014;2023-09-07T09:57:17;5.13;;;3.97;;
18659;SDS011;9459;50.254;19.014;2023-09-07T09:59:46;6.28;;;3.58;;
18659;SDS011;9459;50.254;19.014;2023-09-07T10:02:17;6.05;;;3.45;;
18659;SDS011;9459;50.254;19.014;2023-09-07T10:04:45;5.97;;;3.40;;
18659;SDS011;9459;50.254;19.014;2023-09-07T10:07:14;5.45;;;3.42;;
18659;SDS011;9459;50.254;19.014;2023-09-07T10:09:43;6.57;;;4.13;;
18659;SDS011;9459;50.254;19.014;2023-09-07T10:12:12;4.25;;;3.85;;
18659;SDS011;9459;50.254;19.014;2023-09-07T10:14:43;6.68;;;4.45;;
18659;SDS011;9459;50.254;19.014;2023-09-07T10:17:25;4.85;;;3.60;;
18659;SDS011;9459;50.254;19.014;2023-09-07T10:20:01;6.70;;;4.15;;
18659;SDS011;9459;50.254;19.014;2023-09-07T10:22:32;5.32;;;4.22;;
18659;SDS011;9459;50.254;19.014;2023-09-07T10:25:01;6.40;;;4.03;;
18659;SDS011;9459;50.254;19.014;2023-09-07T10:27:36;5.43;;;3.97;;
18659;SDS011;9459;50.254;19.014;2023-09-07T10:30:09;7.00;;;3.95;;
18659;SDS011;9459;50.254;19.014;2023-09-07T10:32:40;5.53;;;3.72;;
18659;SDS011;9459;50.254;19.014;2023-09-07T10:35:14;5.25;;;4.43;;
18659;SDS011;9459;50.254;19.014;2023-09-07T10:37:44;8.00;;;3.58;;
18659;SDS011;9459;50.254;19.014;2023-09-07T10:40:18;6.65;;;4.03;;
18659;SDS011;9459;50.254;19.014;2023-09-07T10:42:48;4.57;;;3.83;;
18659;SDS011;9459;50.254;19.014;2023-09-07T10:45:17;4.90;;;3.65;;
18659;SDS011;9459;50.254;19.014;2023-09-07T10:47:47;4.05;;;3.58;;
18659;SDS011;9459;50.254;19.014;2023-09-07T10:50:15;7.47;;;4.07;;
18659;SDS011;9459;50.254;19.014;2023-09-07T10:52:44;4.55;;;3.67;;
18659;SDS011;9459;50.254;19.014;2023-09-07T10:55:12;4.53;;;3.40;;
18659;SDS011;9459;50.254;19.014;2023-09-07T10:57:42;5.43;;;3.30;;
18659;SDS011;9459;50.254;19.014;2023-09-07T11:00:11;6.07;;;3.95;;
18659;SDS011;9459;50.254;19.014;2023-09-07T11:02:42;5.28;;;3.80;;
18659;SDS011;9459;50.254;19.014;2023-09-07T11:05:12;9.52;;;3.70;;
18659;SDS011;9459;50.254;19.014;2023-09-07T11:07:41;7.70;;;4.10;;
18659;SDS011;9459;50.254;19.014;2023-09-07T11:10:10;4.13;;;3.73;;
18659;SDS011;9459;50.254;19.014;2023-09-07T11:12:39;4.53;;;3.45;;
18659;SDS011;9459;50.254;19.014;2023-09-07T11:15:08;6.18;;;4.10;;
18659;SDS011;9459;50.254;19.014;2023-09-07T11:17:38;5.57;;;3.85;;
18659;SDS011;9459;50.254;19.014;2023-09-07T11:20:07;5.93;;;3.72;;
18659;SDS011;9459;50.254;19.014;2023-09-07T11:22:39;4.30;;;3.90;;
18659;SDS011;9459;50.254;19.014;2023-09-07T11:25:27;6.03;;;3.53;;
18659;SDS011;9459;50.254;19.014;2023-09-07T11:28:02;6.18;;;3.20;;
18659;SDS011;9459;50.254;19.014;2023-09-07T11:30:31;5.88;;;3.83;;
18659;SDS011;9459;50.254;19.014;2023-09-07T11:33:04;4.82;;;3.58;;
18659;SDS011;9459;50.254;19.014;2023-09-07T11:35:33;4.55;;;3.63;;
18659;SDS011;9459;50.254;19.014;2023-09-07T11:38:04;7.40;;;3.55;;
18659;SDS011;9459;50.254;19.014;2023-09-07T11:40:35;6.13;;;3.33;;
18659;SDS011;9459;50.254;19.014;2023-09-07T11:43:04;8.00;;;3.55;;
18659;SDS011;9459;50.254;19.014;2023-09-07T11:45:32;6.95;;;4.40;;
18659;SDS011;9459;50.254;19.014;2023-09-07T11:48:01;5.03;;;3.72;;
18659;SDS011;9459;50.254;19.014;2023-09-07T11:50:29;6.03;;;3.83;;
18659;SDS011;9459;50.254;19.014;2023-09-07T11:52:59;4.00;;;3.53;;
18659;SDS011;9459;50.254;19.014;2023-09-07T11:55:29;7.10;;;3.80;;
18659;SDS011;9459;50.254;19.014;2023-09-07T11:57:57;6.28;;;3.78;;
18659;SDS011;9459;50.254;19.014;2023-09-07T12:00:26;6.50;;;3.60;;
18659;SDS011;9459;50.254;19.014;2023-09-07T12:02:55;5.72;;;3.72;;
18659;SDS011;9459;50.254;19.014;2023-09-07T12:05:23;4.05;;;3.33;;
18659;SDS011;9459;50.254;19.014;2023-09-07T12:07:52;4.28;;;3.45;;
18659;SDS011;9459;50.254;19.014;2023-09-07T12:10:21;5.90;;;3.47;;
18659;SDS011;9459;50.254;19.014;2023-09-07T12:12:51;7.15;;;4.10;;
18659;SDS011;9459;50.254;19.014;2023-09-07T12:15:20;5.82;;;3.85;;
18659;SDS011;9459;50.254;19.014;2023-09-07T12:17:49;6.25;;;3.40;;
18659;SDS011;9459;50.254;19.014;2023-09-07T12:20:21;4.70;;;3.60;;
18659;SDS011;9459;50.254;19.014;2023-09-07T12:22:50;5.15;;;3.80;;
18659;SDS011;9459;50.254;19.014;2023-09-07T12:25:18;4.75;;;3.60;;
18659;SDS011;9459;50.254;19.014;2023-09-07T12:27:47;4.93;;;3.78;;
18659;SDS011;9459;50.254;19.014;2023-09-07T12:30:22;6.50;;;3.75;;
18659;SDS011;9459;50.254;19.014;2023-09-07T12:32:51;4.88;;;3.45;;
18659;SDS011;9459;50.254;19.014;2023-09-07T12:35:20;3.80;;;3.03;;
18659;SDS011;9459;50.254;19.014;2023-09-07T12:37:48;6.28;;;3.45;;
18659;SDS011;9459;50.254;19.014;2023-09-07T12:40:17;5.70;;;3.60;;
18659;SDS011;9459;50.254;19.014;2023-09-07T12:42:46;8.15;;;3.90;;
18659;SDS011;9459;50.254;19.014;2023-09-07T12:45:14;8.52;;;4.20;;
18659;SDS011;9459;50.254;19.014;2023-09-07T12:47:44;7.20;;;4.43;;
18659;SDS011;9459;50.254;19.014;2023-09-07T12:50:12;4.78;;;3.47;;
18659;SDS011;9459;50.254;19.014;2023-09-07T12:52:41;5.13;;;3.38;;
18659;SDS011;9459;50.254;19.014;2023-09-07T12:55:10;4.90;;;3.60;;
18659;SDS011;9459;50.254;19.014;2023-09-07T12:57:38;4.22;;;3.10;;
18659;SDS011;9459;50.254;19.014;2023-09-07T13:00:08;5.75;;;3.50;;
18659;SDS011;9459;50.254;19.014;2023-09-07T13:02:38;4.63;;;3.45;;
18659;SDS011;9459;50.254;19.014;2023-09-07T13:05:08;5.90;;;3.50;;
18659;SDS011;9459;50.254;19.014;2023-09-07T13:07:37;6.95;;;3.80;;
18659;SDS011;9459;50.254;19.014;2023-09-07T13:10:08;7.32;;;3.95;;
18659;SDS011;9459;50.254;19.014;2023-09-07T13:12:37;7.90;;;3.50;;
18659;SDS011;9459;50.254;19.014;2023-09-07T13:15:06;4.57;;;3.40;;
18659;SDS011;9459;50.254;19.014;2023-09-07T13:17:36;4.20;;;3.33;;
18659;SDS011;9459;50.254;19.014;2023-09-07T13:20:05;5.50;;;4.20;;
18659;SDS011;9459;50.254;19.014;2023-09-07T13:22:36;4.82;;;2.92;;
18659;SDS011;9459;50.254;19.014;2023-09-07T13:25:05;4.72;;;3.38;;
18659;SDS011;9459;50.254;19.014;2023-09-07T13:27:36;5.38;;;3.60;;
18659;SDS011;9459;50.254;19.014;2023-09-07T13:30:05;4.35;;;3.42;;
18659;SDS011;9459;50.254;19.014;2023-09-07T13:32:35;4.93;;;3.78;;
18659;SDS011;9459;50.254;19.014;2023-09-07T13:35:04;5.47;;;3.58;;
18659;SDS011;9459;50.254;19.014;2023-09-07T13:37:33;6.30;;;3.38;;
18659;SDS011;9459;50.254;19.014;2023-09-07T13:40:06;4.90;;;3.55;;
18659;SDS011;9459;50.254;19.014;2023-09-07T13:42:36;5.85;;;3.25;;
18659;SDS011;9459;50.254;19.014;2023-09-07T13:45:06;4.25;;;3.28;;
18659;SDS011;9459;50.254;19.014;2023-09-07T13:47:36;6.07;;;3.35;;
18659;SDS011;9459;50.254;19.014;2023-09-07T13:50:05;6.22;;;3.60;;
18659;SDS011;9459;50.254;19.014;2023-09-07T13:52:34;6.72;;;3.45;;
18659;SDS011;9459;50.254;19.014;2023-09-07T13:55:05;5.53;;;3.20;;
18659;SDS011;9459;50.254;19.014;2023-09-07T13:57:33;4.53;;;3.10;;
18659;SDS011;9459;50.254;19.014;2023-09-07T14:00:02;4.57;;;3.28;;
18659;SDS011;9459;50.254;19.014;2023-09-07T14:02:33;4.05;;;3.10;;
18659;SDS011;9459;50.254;19.014;2023-09-07T14:05:02;7.90;;;3.28;;
18659;SDS011;9459;50.254;19.014;2023-09-07T14:07:31;5.05;;;3.10;;
18659;SDS011;9459;50.254;19.014;2023-09-07T14:10:00;5.47;;;3.47;;
18659;SDS011;9459;50.254;19.014;2023-09-07T14:12:30;3.92;;;3.33;;
18659;SDS011;9459;50.254;19.014;2023-09-07T14:14:59;5.30;;;3.50;;
18659;SDS011;9459;50.254;19.014;2023-09-07T14:17:27;4.63;;;2.80;;
18659;SDS011;9459;50.254;19.014;2023-09-07T14:19:56;3.45;;;2.85;;
18659;SDS011;9459;50.254;19.014;2023-09-07T14:22:24;5.53;;;2.83;;
18659;SDS011;9459;50.254;19.014;2023-09-07T14:24:53;3.53;;;2.92;;
18659;SDS011;9459;50.254;19.014;2023-09-07T14:27:21;4.95;;;3.35;;
18659;SDS011;9459;50.254;19.014;2023-09-07T14:29:52;4.68;;;2.88;;
18659;SDS011;9459;50.254;19.014;2023-09-07T14:32:20;4.47;;;3.00;;
18659;SDS011;9459;50.254;19.014;2023-09-07T14:34:49;4.00;;;3.20;;
18659;SDS011;9459;50.254;19.014;2023-09-07T14:37:18;3.88;;;3.08;;
18659;SDS011;9459;50.254;19.014;2023-09-07T14:39:46;4.50;;;3.33;;
18659;SDS011;9459;50.254;19.014;2023-09-07T14:42:17;8.48;;;3.17;;
18659;SDS011;9459;50.254;19.014;2023-09-07T14:44:46;5.60;;;3.45;;
18659;SDS011;9459;50.254;19.014;2023-09-07T14:47:16;4.28;;;3.55;;
18659;SDS011;9459;50.254;19.014;2023-09-07T14:49:52;3.42;;;3.13;;
18659;SDS011;9459;50.254;19.014;2023-09-07T14:52:20;4.50;;;3.33;;
18659;SDS011;9459;50.254;19.014;2023-09-07T14:54:51;4.93;;;3.40;;
18659;SDS011;9459;50.254;19.014;2023-09-07T14:57:19;6.43;;;3.45;;
18659;SDS011;9459;50.254;19.014;2023-09-07T14:59:49;4.13;;;3.08;;